Time;durP1;ratioP1;P1;durP2;ratioP2;P2;SDS_P1;SDS_P2;PMS_P1;PMS_P2;Temp;Humidity;BMP_temperature;BMP_pressure;BME280_temperature;BME280_humidity;BME280_pressure;Samples;Min_cycle;Max_cycle;Signal;HPM_P1;HPM_P2
2023/04/27 00:01:51;;;;;;;2.92;1.50;;;;;;;16.85;43.11;100385.81;5074875;28;20067;-62
2023/04/27 00:04:19;;;;;;;3.45;1.60;;;;;;;16.83;43.11;100390.50;5074939;28;20073;-62
2023/04/27 00:06:48;;;;;;;2.40;1.30;;;;;;;16.82;43.17;100392.34;5074900;28;20452;-63
2023/04/27 00:09:16;;;;;;;2.30;1.33;;;;;;;16.81;43.19;100389.78;5074954;28;20040;-63
2023/04/27 00:11:46;;;;;;;3.28;1.50;;;;;;;16.80;43.16;100391.63;5074908;28;20048;-63
2023/04/27 00:14:14;;;;;;;2.20;1.42;;;;;;;16.79;43.14;100391.72;5074816;28;20118;-63
2023/04/27 00:16:42;;;;;;;3.38;1.38;;;;;;;16.78;43.14;100396.25;5074792;28;20131;-63
2023/04/27 00:19:12;;;;;;;2.05;1.25;;;;;;;16.78;43.08;100395.41;5074525;28;20049;-63
2023/04/27 00:21:41;;;;;;;2.72;1.63;;;;;;;16.77;43.12;100393.69;5074588;28;20045;-63
2023/04/27 00:24:09;;;;;;;2.80;1.60;;;;;;;16.75;43.04;100391.13;5074804;28;20053;-63
2023/04/27 00:26:37;;;;;;;1.83;1.30;;;;;;;16.74;43.02;100383.19;5074484;28;20135;-64
2023/04/27 00:29:14;;;;;;;2.15;1.20;;;;;;;16.73;43.07;100385.03;5074534;28;20076;-64
2023/04/27 00:31:42;;;;;;;3.90;1.60;;;;;;;16.73;42.96;100389.56;5074343;28;20040;-64
2023/04/27 00:34:10;;;;;;;3.03;1.40;;;;;;;16.72;42.99;100390.53;5074654;28;20041;-64
2023/04/27 00:36:39;;;;;;;3.25;1.55;;;;;;;16.70;43.08;100382.59;5074536;28;20048;-64
2023/04/27 00:39:07;;;;;;;2.53;1.40;;;;;;;16.70;42.98;100381.75;5074398;28;20041;-64
2023/04/27 00:41:38;;;;;;;2.40;1.30;;;;;;;16.68;43.11;100391.72;5074263;28;20147;-62
2023/04/27 00:44:06;;;;;;;2.88;1.55;;;;;;;16.67;43.10;100390.03;5073960;28;20060;-62
2023/04/27 00:46:36;;;;;;;2.10;1.20;;;;;;;16.66;43.08;100391.00;5074063;28;20494;-64
2023/04/27 00:49:04;;;;;;;2.65;1.27;;;;;;;16.66;43.23;100391.88;5074383;28;20145;-63
2023/04/27 00:51:33;;;;;;;2.53;1.40;;;;;;;16.66;43.05;100388.31;5074201;28;20052;-63
2023/04/27 00:54:01;;;;;;;2.70;1.50;;;;;;;16.64;43.01;100387.59;5074012;28;20045;-63
2023/04/27 00:56:30;;;;;;;2.15;1.30;;;;;;;16.63;43.19;100384.03;5073925;28;20044;-63
2023/04/27 00:58:59;;;;;;;2.30;1.40;;;;;;;16.62;42.99;100384.19;5073946;28;20048;-63
2023/04/27 01:01:29;;;;;;;2.15;1.52;;;;;;;16.60;42.92;100382.47;5073761;28;20482;-63
2023/04/27 01:03:59;;;;;;;2.47;1.60;;;;;;;16.60;42.96;100387.84;5073948;28;20058;-63
2023/04/27 01:06:28;;;;;;;2.55;1.42;;;;;;;16.58;43.01;100395.19;5073844;28;20045;-63
2023/04/27 01:08:56;;;;;;;3.05;1.33;;;;;;;16.58;42.97;100389.78;5073747;28;20049;-63
2023/04/27 01:11:25;;;;;;;2.28;1.27;;;;;;;16.56;42.93;100378.31;5073613;28;20139;-63
2023/04/27 01:13:55;;;;;;;2.53;1.40;;;;;;;16.55;42.94;100390.06;5073614;28;20044;-63
2023/04/27 01:16:24;;;;;;;3.00;1.77;;;;;;;16.54;42.95;100387.50;5073506;28;20067;-62
2023/04/27 01:18:52;;;;;;;2.63;1.38;;;;;;;16.52;42.85;100384.94;5073594;28;20466;-63
2023/04/27 01:21:21;;;;;;;2.55;1.30;;;;;;;16.52;42.95;100389.47;5073430;28;20071;-63
2023/04/27 01:23:51;;;;;;;2.67;1.50;;;;;;;16.50;42.81;100394.09;5073322;28;20048;-63
2023/04/27 01:26:19;;;;;;;2.65;1.50;;;;;;;16.51;42.83;100398.53;5073672;28;20053;-63
2023/04/27 01:28:47;;;;;;;2.50;1.50;;;;;;;16.49;42.90;100395.94;5073600;28;20048;-63
2023/04/27 01:31:15;;;;;;;2.42;1.27;;;;;;;16.48;43.01;100399.63;5073504;28;20456;-63
2023/04/27 01:33:44;;;;;;;2.08;1.20;;;;;;;16.45;42.90;100401.72;5073395;28;20121;-63
2023/04/27 01:36:12;;;;;;;1.95;1.30;;;;;;;16.44;42.95;100394.63;5073278;28;20060;-63
2023/04/27 01:38:41;;;;;;;2.00;1.35;;;;;;;16.43;42.96;100403.69;5073197;28;20049;-63
2023/04/27 01:41:10;;;;;;;2.72;1.50;;;;;;;16.40;42.95;100396.69;5073403;28;20049;-62
2023/04/27 01:43:39;;;;;;;2.63;1.40;;;;;;;16.41;42.81;100400.28;5073293;28;20045;-62
2023/04/27 01:46:07;;;;;;;3.50;1.67;;;;;;;16.43;42.80;100403.69;5072933;28;20147;-62
2023/04/27 01:48:36;;;;;;;2.88;1.65;;;;;;;16.41;42.85;100397.59;5073122;28;20044;-62
2023/04/27 01:51:04;;;;;;;2.53;1.50;;;;;;;16.41;42.91;100402.97;5072818;28;20485;-62
2023/04/27 01:53:33;;;;;;;2.40;1.40;;;;;;;16.39;42.83;100400.38;5073098;28;20060;-62
2023/04/27 01:56:01;;;;;;;2.83;1.50;;;;;;;16.38;42.95;100404.06;5072296;28;20125;-62
2023/04/27 01:58:31;;;;;;;2.80;1.50;;;;;;;16.36;42.75;100411.41;5072868;28;20486;-62
2023/04/27 02:00:59;;;;;;;2.10;1.35;;;;;;;16.35;42.90;100419.59;5072802;28;20074;-62
2023/04/27 02:03:27;;;;;;;2.58;1.45;;;;;;;16.33;42.90;100414.34;5072597;28;20056;-62
2023/04/27 02:05:56;;;;;;;2.13;1.17;;;;;;;16.33;42.91;100417.06;5072868;28;20120;-62
2023/04/27 02:08:24;;;;;;;2.45;1.40;;;;;;;16.32;42.77;100420.72;5072803;28;20409;-63
2023/04/27 02:10:52;;;;;;;3.35;1.60;;;;;;;16.31;42.78;100413.63;5072696;28;20048;-63
2023/04/27 02:13:21;;;;;;;2.13;1.30;;;;;;;16.29;42.81;100418.25;5072501;28;20098;-62
2023/04/27 02:15:50;;;;;;;2.80;1.30;;;;;;;16.29;42.81;100420.94;5072500;28;20452;-64
2023/04/27 02:18:19;;;;;;;2.60;1.48;;;;;;;16.28;42.66;100421.94;5072350;28;20048;-64
2023/04/27 02:20:47;;;;;;;2.53;1.50;;;;;;;16.26;42.67;100427.44;5072555;28;20044;-64
2023/04/27 02:23:16;;;;;;;2.10;1.35;;;;;;;16.26;42.65;100423.91;5072445;28;20139;-64
2023/04/27 02:25:45;;;;;;;3.20;1.55;;;;;;;16.25;42.55;100431.13;5072372;28;20056;-63
2023/04/27 02:28:14;;;;;;;2.63;1.42;;;;;;;16.23;42.67;100425.00;5072373;28;20094;-63
2023/04/27 02:30:42;;;;;;;2.88;1.58;;;;;;;16.23;42.47;100426.84;5072109;28;20049;-63
2023/04/27 02:33:12;;;;;;;3.00;1.55;;;;;;;16.22;42.70;100433.22;5072460;28;20083;-63
2023/04/27 02:35:40;;;;;;;2.78;1.60;;;;;;;16.20;42.56;100421.69;5072368;28;20040;-63
2023/04/27 02:38:09;;;;;;;2.70;1.40;;;;;;;16.19;42.46;100430.75;5072310;28;20052;-63
2023/04/27 02:40:37;;;;;;;2.42;1.38;;;;;;;16.18;42.46;100437.97;5072104;28;20047;-63
2023/04/27 02:43:05;;;;;;;3.08;1.60;;;;;;;16.17;42.59;100436.25;5071905;28;20048;-63
2023/04/27 02:45:37;;;;;;;3.05;1.70;;;;;;;16.17;42.63;100438.09;5071735;28;20095;-63
2023/04/27 02:48:05;;;;;;;2.75;1.52;;;;;;;16.16;42.59;100436.41;5072036;28;20051;-63
2023/04/27 02:50:40;;;;;;;3.03;1.58;;;;;;;16.14;42.57;100441.06;5072002;28;20107;-63
2023/04/27 02:53:09;;;;;;;2.65;1.50;;;;;;;16.13;42.49;100440.19;5071855;28;20044;-63
2023/04/27 02:55:38;;;;;;;3.00;1.77;;;;;;;16.10;42.69;100443.09;5071851;28;20509;-63
2023/04/27 02:58:06;;;;;;;3.10;1.70;;;;;;;16.11;42.39;100441.28;5071723;28;20106;-63
2023/04/27 03:00:35;;;;;;;3.38;1.90;;;;;;;16.10;42.64;100445.81;5071817;28;20072;-63
2023/04/27 03:03:03;;;;;;;2.75;1.63;;;;;;;16.08;42.52;100447.75;5071812;28;20051;-63
2023/04/27 03:05:32;;;;;;;2.63;1.52;;;;;;;16.08;42.47;100452.28;5071678;28;20551;-63
2023/04/27 03:08:17;;;;;;;2.42;1.52;;;;;;;16.06;42.50;100451.56;5070751;28;20055;-63
2023/04/27 03:10:45;;;;;;;2.95;1.60;;;;;;;16.04;42.60;100459.75;5071647;28;20511;-63
2023/04/27 03:13:14;;;;;;;2.47;1.67;;;;;;;15.99;42.66;100457.41;5072037;28;20460;-64
2023/04/27 03:15:42;;;;;;;3.28;1.90;;;;;;;15.99;42.60;100457.41;5071612;28;20486;-64
2023/04/27 03:18:11;;;;;;;3.65;1.60;;;;;;;16.02;42.46;100456.34;5071991;28;20074;-63
2023/04/27 03:20:39;;;;;;;2.90;1.67;;;;;;;16.00;42.58;100464.50;5071620;28;20045;-63
2023/04/27 03:23:08;;;;;;;2.47;1.73;;;;;;;15.96;42.46;100459.50;5071504;28;20105;-63
2023/04/27 03:25:37;;;;;;;2.90;1.52;;;;;;;15.92;42.65;100466.09;5071728;28;20068;-63
2023/04/27 03:28:06;;;;;;;3.17;1.67;;;;;;;15.91;42.69;100462.53;5071885;28;20052;-63
2023/04/27 03:30:34;;;;;;;3.47;1.60;;;;;;;15.92;42.54;100463.41;5071508;28;20455;-63
2023/04/27 03:33:02;;;;;;;2.80;1.73;;;;;;;15.91;42.63;100467.94;5071405;28;20063;-63
2023/04/27 03:35:31;;;;;;;3.30;1.80;;;;;;;15.89;42.50;100472.59;5071313;28;20044;-63
2023/04/27 03:37:59;;;;;;;2.75;1.80;;;;;;;15.89;42.74;100466.34;5072010;28;20040;-63
2023/04/27 03:40:27;;;;;;;3.70;1.95;;;;;;;15.88;42.66;100468.19;5071510;28;20060;-63
2023/04/27 03:42:56;;;;;;;2.90;1.67;;;;;;;15.87;42.50;100471.84;5071255;28;20083;-63
2023/04/27 03:45:26;;;;;;;3.50;1.83;;;;;;;15.86;42.59;100472.84;5071145;28;20620;-63
2023/04/27 03:47:54;;;;;;;3.45;1.77;;;;;;;15.84;42.68;100477.47;5071065;28;20409;-63
2023/04/27 03:50:23;;;;;;;3.15;1.60;;;;;;;15.85;42.62;100481.03;5071117;28;20079;-64
2023/04/27 03:52:51;;;;;;;3.58;1.75;;;;;;;15.84;42.40;100488.25;5071042;28;20052;-64
2023/04/27 03:55:19;;;;;;;3.65;1.77;;;;;;;15.83;42.43;100491.06;5071326;28;20044;-64
2023/04/27 03:57:48;;;;;;;3.67;1.80;;;;;;;15.83;42.42;100488.38;5071357;28;20048;-63
2023/04/27 04:00:18;;;;;;;3.10;1.70;;;;;;;15.82;42.51;100492.00;5071109;28;20040;-63
2023/04/27 04:02:46;;;;;;;3.22;1.75;;;;;;;15.80;42.54;100494.81;5071051;28;20135;-63
2023/04/27 04:05:15;;;;;;;3.35;1.90;;;;;;;15.81;42.42;100499.22;5071482;28;20450;-64
2023/04/27 04:07:43;;;;;;;4.60;1.80;;;;;;;15.80;42.49;100499.34;5071238;28;20040;-63
2023/04/27 04:10:11;;;;;;;3.40;1.80;;;;;;;15.77;42.59;100499.59;5070914;28;20083;-64
2023/04/27 04:12:40;;;;;;;2.85;1.83;;;;;;;15.78;42.58;100504.00;5070973;28;20110;-64
2023/04/27 04:15:08;;;;;;;3.25;1.88;;;;;;;15.76;42.53;100514.88;5071054;28;20453;-63
2023/04/27 04:17:38;;;;;;;3.58;1.88;;;;;;;15.76;42.55;100514.88;5070917;28;20045;-63
2023/04/27 04:20:09;;;;;;;3.50;2.03;;;;;;;15.74;42.38;100515.00;5073572;28;20089;-63
2023/04/27 04:22:38;;;;;;;3.17;1.90;;;;;;;15.74;42.52;100511.44;5074598;28;20135;-62
2023/04/27 04:25:07;;;;;;;3.92;1.98;;;;;;;15.73;42.58;100517.81;5074496;28;20087;-63
2023/04/27 04:27:36;;;;;;;3.50;1.83;;;;;;;15.73;42.54;100515.97;5074479;28;20522;-63
2023/04/27 04:30:06;;;;;;;4.03;2.13;;;;;;;15.73;42.55;100515.13;5074255;28;20055;-63
2023/04/27 04:32:36;;;;;;;3.42;2.00;;;;;;;15.71;42.38;100522.41;5074413;28;20080;-63
2023/04/27 04:35:06;;;;;;;3.60;2.10;;;;;;;15.70;42.49;100520.72;5074545;28;20048;-64
2023/04/27 04:37:35;;;;;;;4.30;1.90;;;;;;;15.71;42.48;100522.41;5074358;28;20054;-63
2023/04/27 04:40:09;;;;;;;3.63;2.08;;;;;;;15.71;42.44;100527.81;5074142;28;20655;-64
2023/04/27 04:42:37;;;;;;;3.72;2.00;;;;;;;15.70;42.51;100520.72;5074028;28;20050;-64
2023/04/27 04:45:06;;;;;;;4.05;2.15;;;;;;;15.69;42.54;100527.94;5074126;28;20061;-63
2023/04/27 04:47:35;;;;;;;3.95;2.08;;;;;;;15.69;42.51;100529.75;5074443;28;20045;-63
2023/04/27 04:50:04;;;;;;;4.38;1.90;;;;;;;15.68;42.51;100530.75;5074096;28;20052;-64
2023/04/27 04:52:33;;;;;;;4.10;1.80;;;;;;;15.67;42.49;100531.72;5074100;28;20817;-64
2023/04/27 04:55:02;;;;;;;3.97;2.10;;;;;;;15.67;42.38;100532.56;5073881;28;20413;-63
2023/04/27 04:57:30;;;;;;;3.72;1.90;;;;;;;15.68;42.45;100536.13;5073888;28;20493;-63
2023/04/27 05:00:00;;;;;;;3.25;2.08;;;;;;;15.66;42.37;100532.69;5074025;28;20048;-64
2023/04/27 05:02:29;;;;;;;3.83;2.10;;;;;;;15.65;42.42;100537.22;5073589;28;20076;-62
2023/04/27 05:04:57;;;;;;;5.35;2.00;;;;;;;15.65;42.44;100539.06;5073681;28;20052;-63
2023/04/27 05:07:25;;;;;;;3.10;1.83;;;;;;;15.65;42.44;100544.44;5073648;28;20059;-63
2023/04/27 05:09:56;;;;;;;4.95;2.17;;;;;;;15.64;42.56;100543.56;5073662;28;20060;-63
2023/04/27 05:12:24;;;;;;;3.97;2.10;;;;;;;15.64;42.55;100550.78;5073679;28;20085;-63
2023/04/27 05:14:52;;;;;;;5.47;2.30;;;;;;;15.63;42.41;100554.41;5073674;28;20405;-62
2023/04/27 05:17:20;;;;;;;3.78;1.90;;;;;;;15.63;42.41;100551.72;5073462;28;20051;-63
2023/04/27 05:19:48;;;;;;;3.78;1.88;;;;;;;15.62;42.47;100558.09;5073453;28;20044;-64
2023/04/27 05:22:17;;;;;;;3.83;2.03;;;;;;;15.62;42.62;100558.09;5073207;28;20045;-64
2023/04/27 05:24:45;;;;;;;4.13;1.95;;;;;;;15.63;42.53;100565.16;5082487;28;20489;-62
2023/04/27 05:27:15;;;;;;;3.97;2.00;;;;;;;15.62;42.37;100571.53;5093092;28;20048;-63
2023/04/27 05:29:44;;;;;;;3.60;2.10;;;;;;;15.61;42.54;100569.81;5078402;28;20044;-63
2023/04/27 05:32:12;;;;;;;4.18;2.15;;;;;;;15.60;42.56;100573.44;5088688;28;20050;-64
2023/04/27 05:34:42;;;;;;;3.88;2.00;;;;;;;15.60;42.65;100563.59;5079004;28;20040;-63
2023/04/27 05:37:10;;;;;;;3.83;2.00;;;;;;;15.60;42.61;100574.34;5083069;28;20041;-63
2023/04/27 05:39:39;;;;;;;3.78;1.98;;;;;;;15.58;42.47;100570.88;5073234;28;20044;-63
2023/04/27 05:42:07;;;;;;;3.35;1.83;;;;;;;15.58;42.50;100572.72;5073799;28;20059;-62
2023/04/27 05:44:37;;;;;;;3.70;2.05;;;;;;;15.58;42.44;100572.72;5073935;28;20051;-65
2023/04/27 05:47:05;;;;;;;4.00;2.28;;;;;;;15.58;42.57;100580.78;5070531;28;20048;-64
2023/04/27 05:49:33;;;;;;;3.42;1.98;;;;;;;15.56;42.79;100578.22;5052723;28;20768;-64
2023/04/27 05:52:03;;;;;;;3.75;2.15;;;;;;;15.58;42.62;100581.63;5052831;28;20049;-64
2023/04/27 05:54:31;;;;;;;3.88;2.22;;;;;;;15.59;42.70;100586.03;5052504;28;20087;-64
2023/04/27 05:56:59;;;;;;;3.85;1.88;;;;;;;15.58;42.74;100584.31;5061471;28;20105;-64
2023/04/27 05:59:28;;;;;;;5.25;2.20;;;;;;;15.59;42.62;100594.09;5072265;28;20857;-62
2023/04/27 06:01:57;;;;;;;4.80;1.98;;;;;;;15.58;42.52;100588.84;5081605;28;20055;-63
2023/04/27 06:04:26;;;;;;;3.17;1.92;;;;;;;15.62;42.47;100593.03;5080628;28;20048;-63
2023/04/27 06:06:54;;;;;;;4.40;2.40;;;;;;;15.62;42.69;100593.03;5088166;28;20109;-63
2023/04/27 06:09:22;;;;;;;4.07;2.03;;;;;;;15.62;42.52;100593.03;5075439;28;20044;-62
2023/04/27 06:11:51;;;;;;;4.00;2.00;;;;;;;15.59;42.56;100588.72;5085502;28;20402;-63
2023/04/27 06:14:19;;;;;;;3.55;2.08;;;;;;;15.59;42.49;100594.09;5072661;28;20750;-63
2023/04/27 06:16:47;;;;;;;2.95;2.00;;;;;;;15.61;42.60;100588.63;5087729;28;20256;-63
2023/04/27 06:19:16;;;;;;;3.70;1.98;;;;;;;15.60;42.60;100593.16;5080696;28;20139;-63
2023/04/27 06:21:45;;;;;;;4.00;2.20;;;;;;;15.61;42.62;100594.03;5079627;28;20055;-62
2023/04/27 06:24:13;;;;;;;3.53;2.00;;;;;;;15.61;42.62;100596.72;5087537;28;20379;-63
2023/04/27 06:26:41;;;;;;;3.78;2.00;;;;;;;15.62;42.60;100598.41;5092329;28;20044;-63
2023/04/27 06:29:10;;;;;;;4.20;1.98;;;;;;;15.62;42.65;100606.47;5092260;28;20051;-63
2023/04/27 06:31:38;;;;;;;3.40;2.15;;;;;;;15.62;42.53;100606.47;5092111;28;20131;-62
2023/04/27 06:34:06;;;;;;;4.72;2.20;;;;;;;15.62;42.70;100604.66;5091942;28;20044;-64
2023/04/27 06:36:36;;;;;;;3.60;2.03;;;;;;;15.66;42.42;100608.00;5073388;28;20505;-64
2023/04/27 06:39:04;;;;;;;3.20;2.00;;;;;;;15.67;42.57;100604.31;5071766;28;20101;-64
2023/04/27 06:41:32;;;;;;;4.10;1.80;;;;;;;15.68;42.57;100603.34;5071567;28;20048;-64
2023/04/27 06:44:00;;;;;;;3.63;2.08;;;;;;;15.65;42.59;100599.06;5071688;28;20048;-63
2023/04/27 06:46:28;;;;;;;3.65;2.10;;;;;;;15.67;42.60;100604.31;5071334;28;20078;-65
2023/04/27 06:48:57;;;;;;;4.07;2.03;;;;;;;15.66;42.68;100614.22;5071707;28;20044;-64
2023/04/27 06:51:25;;;;;;;4.18;2.20;;;;;;;15.66;42.55;100605.31;5071503;28;20056;-64
2023/04/27 06:53:56;;;;;;;3.38;2.00;;;;;;;15.67;42.57;100605.19;5071392;28;20497;-64
2023/04/27 06:56:24;;;;;;;3.00;2.03;;;;;;;15.66;42.68;100605.31;5071340;28;20382;-64
2023/04/27 06:58:52;;;;;;;3.47;1.92;;;;;;;15.65;42.55;100604.44;5071352;28;20044;-64
2023/04/27 07:01:21;;;;;;;4.47;2.22;;;;;;;15.66;42.59;100614.22;5071555;28;20424;-63
2023/04/27 07:03:49;;;;;;;4.05;2.10;;;;;;;15.67;42.76;100607.88;5071452;28;20052;-63
2023/04/27 07:06:18;;;;;;;4.00;1.90;;;;;;;15.69;42.66;100616.66;5071346;28;20092;-63
2023/04/27 07:08:46;;;;;;;3.03;1.80;;;;;;;15.68;42.55;100614.94;5071410;28;20059;-64
2023/04/27 07:11:16;;;;;;;3.78;1.80;;;;;;;15.71;42.71;100619.25;5071233;28;20426;-64
2023/04/27 07:13:44;;;;;;;3.53;2.05;;;;;;;15.73;42.72;100617.31;5071269;28;20132;-64
2023/04/27 07:16:12;;;;;;;3.63;1.90;;;;;;;15.74;42.65;100613.66;5071472;28;20045;-64
2023/04/27 07:18:40;;;;;;;4.97;1.83;;;;;;;15.75;42.70;100612.66;5071175;28;20422;-64
2023/04/27 07:21:11;;;;;;;3.60;1.95;;;;;;;15.76;42.63;100616.22;5071176;28;20102;-64
2023/04/27 07:23:40;;;;;;;3.97;2.08;;;;;;;15.75;42.66;100615.34;5070768;28;20135;-65
2023/04/27 07:26:09;;;;;;;4.10;1.80;;;;;;;15.77;42.59;100618.78;5071197;28;20453;-64
2023/04/27 07:28:39;;;;;;;3.80;1.90;;;;;;;15.75;42.59;100618.03;5071144;28;20052;-64
2023/04/27 07:31:07;;;;;;;3.20;1.92;;;;;;;15.77;42.70;100617.94;5071407;28;20404;-63
2023/04/27 07:33:35;;;;;;;3.80;1.83;;;;;;;15.77;42.62;100624.16;5070873;28;20045;-64
2023/04/27 07:36:04;;;;;;;4.25;2.00;;;;;;;15.79;42.71;100632.09;5070770;28;20055;-64
2023/04/27 07:38:32;;;;;;;4.40;2.00;;;;;;;15.79;42.69;100627.59;5071252;28;20048;-63
2023/04/27 07:41:06;;;;;;;;;;;;;;;15.80;42.80;100623.91;5071769;28;20068;-63
2023/04/27 07:43:34;;;;;;;4.15;1.90;;;;;;;15.80;42.58;100626.59;5070990;28;20391;-63
2023/04/27 07:46:04;;;;;;;4.93;2.08;;;;;;;15.82;42.62;100630.03;5070773;28;20098;-64
2023/04/27 07:48:32;;;;;;;2.70;1.73;;;;;;;15.81;42.71;100620.25;5070761;28;20055;-63
2023/04/27 07:51:01;;;;;;;4.88;1.90;;;;;;;15.82;42.75;100619.28;5071264;28;20075;-64
2023/04/27 07:53:29;;;;;;;3.75;1.80;;;;;;;15.83;42.74;100623.72;5070798;28;20514;-64
2023/04/27 07:55:57;;;;;;;3.72;1.65;;;;;;;15.84;42.76;100621.88;5074792;28;20414;-64
2023/04/27 07:58:25;;;;;;;3.60;1.77;;;;;;;15.85;42.73;100620.91;5074667;28;20490;-64
2023/04/27 08:00:54;;;;;;;4.30;1.92;;;;;;;15.86;42.76;100618.09;5074498;28;20128;-64
2023/04/27 08:03:23;;;;;;;3.75;1.80;;;;;;;15.87;42.60;100613.56;5074698;28;20048;-64
2023/04/27 08:05:52;;;;;;;3.25;1.85;;;;;;;15.86;42.74;100618.09;5074922;28;20092;-64
2023/04/27 08:08:21;;;;;;;2.75;1.77;;;;;;;15.89;42.58;100617.84;5074947;28;20128;-63
2023/04/27 08:10:49;;;;;;;3.03;1.63;;;;;;;15.89;42.62;100617.84;5074650;28;20139;-64
2023/04/27 08:13:17;;;;;;;3.45;1.90;;;;;;;15.91;42.43;100612.34;5074507;28;20084;-63
2023/04/27 08:15:48;;;;;;;3.00;1.90;;;;;;;15.93;42.44;100619.34;5074506;28;20102;-63
2023/04/27 08:18:16;;;;;;;2.72;1.70;;;;;;;15.93;42.83;100613.97;5074674;28;20048;-64
2023/04/27 08:20:49;;;;;;;2.55;1.52;;;;;;;15.95;42.64;100621.91;5074392;28;20483;-63
2023/04/27 08:23:17;;;;;;;4.05;1.80;;;;;;;15.96;42.57;100619.09;5074408;28;20041;-63
2023/04/27 08:25:45;;;;;;;3.42;2.00;;;;;;;15.99;42.68;100616.16;5074255;28;20772;-63
2023/04/27 08:28:15;;;;;;;3.17;1.58;;;;;;;15.99;42.59;100624.22;5074300;28;20083;-63
2023/04/27 08:30:43;;;;;;;4.00;1.85;;;;;;;16.02;42.58;100623.16;5074525;28;20441;-63
2023/04/27 08:33:12;;;;;;;3.42;1.67;;;;;;;16.03;42.64;100617.66;5074622;28;20460;-63
2023/04/27 08:35:40;;;;;;;3.70;1.67;;;;;;;16.05;42.71;100622.06;5074092;28;20139;-63
2023/04/27 08:38:10;;;;;;;2.80;1.63;;;;;;;16.07;42.71;100620.09;5074042;28;20070;-64
2023/04/27 08:40:42;;;;;;;3.13;1.60;;;;;;;16.08;42.69;100619.13;5074095;28;20428;-63
2023/04/27 08:43:11;;;;;;;2.83;1.70;;;;;;;16.09;42.72;100618.13;5073951;28;20062;-63
2023/04/27 08:45:45;;;;;;;2.58;1.77;;;;;;;16.09;42.70;100618.13;5074033;28;20059;-63
2023/04/27 08:48:14;;;;;;;3.28;1.70;;;;;;;16.12;42.69;100618.78;5073860;28;20044;-64
2023/04/27 08:50:44;;;;;;;2.78;1.80;;;;;;;16.13;42.78;100619.63;5073803;28;20053;-64
2023/04/27 08:53:22;;;;;;;3.03;1.65;;;;;;;16.16;42.63;100614.00;5073864;28;20079;-63
2023/04/27 08:55:50;;;;;;;3.78;1.80;;;;;;;16.17;42.57;100615.72;5074061;28;20091;-64
2023/04/27 08:58:18;;;;;;;3.58;1.70;;;;;;;16.18;42.83;100614.75;5074187;28;20052;-64
2023/04/27 09:00:48;;;;;;;3.95;1.88;;;;;;;16.20;43.00;100615.47;5073885;28;20045;-65
2023/04/27 09:03:22;;;;;;;3.30;1.80;;;;;;;16.20;42.93;100615.47;5073470;28;20102;-64
2023/04/27 09:05:51;;;;;;;3.63;1.90;;;;;;;16.23;42.63;100612.56;5073512;28;20128;-63
2023/04/27 09:08:44;;;;;;;2.13;1.27;;;;;;;16.23;42.44;100604.47;5073713;28;20383;-64
2023/04/27 09:11:13;;;;;;;2.67;1.55;;;;;;;16.24;42.39;100611.56;5073678;28;20052;-65
2023/04/27 09:13:44;;;;;;;3.10;1.60;;;;;;;16.26;42.58;100609.63;5073636;28;20286;-64
2023/04/27 09:16:13;;;;;;;2.60;1.55;;;;;;;16.28;42.63;100607.66;5073450;28;20076;-63
2023/04/27 09:18:44;;;;;;;3.22;1.65;;;;;;;16.29;42.39;100609.38;5073510;28;20135;-63
2023/04/27 09:21:22;;;;;;;3.05;1.67;;;;;;;16.30;42.58;100597.63;5073489;28;20045;-63
2023/04/27 09:23:52;;;;;;;4.10;1.70;;;;;;;16.32;42.50;100609.16;5073656;28;20502;-64
2023/04/27 09:26:21;;;;;;;3.75;1.70;;;;;;;16.34;42.85;100611.72;5073383;28;20052;-63
2023/04/27 09:28:51;;;;;;;3.05;1.50;;;;;;;16.35;42.58;100598.13;5073370;28;20170;-63
2023/04/27 09:31:20;;;;;;;3.63;1.67;;;;;;;16.36;42.59;100599.84;5073385;28;20406;-63
2023/04/27 09:33:55;;;;;;;2.70;1.50;;;;;;;16.39;42.80;100602.28;5073314;28;20145;-64
2023/04/27 09:36:24;;;;;;;3.53;1.60;;;;;;;16.39;42.49;100594.19;5073101;28;20041;-63
2023/04/27 09:38:54;;;;;;;3.03;1.65;;;;;;;16.41;42.27;100589.59;5072933;28;20090;-65
2023/04/27 09:41:22;;;;;;;4.45;1.85;;;;;;;16.42;42.34;100593.97;5072851;28;20071;-63
2023/04/27 09:43:52;;;;;;;2.60;1.40;;;;;;;16.43;42.83;100584.94;5072909;28;20418;-64
2023/04/27 09:46:24;;;;;;;2.47;1.50;;;;;;;16.45;42.40;100588.34;5072980;28;20098;-63
2023/04/27 09:48:54;;;;;;;2.65;1.70;;;;;;;16.47;42.47;100580.16;5072906;28;20071;-64
2023/04/27 09:51:22;;;;;;;3.70;1.65;;;;;;;16.48;42.45;100577.31;5072826;28;20048;-64
2023/04/27 09:53:55;;;;;;;3.10;1.40;;;;;;;16.49;42.62;100573.66;5072818;28;20048;-64
2023/04/27 09:56:36;;;;;;;3.63;1.63;;;;;;;16.51;42.71;100577.09;5072396;28;20409;-65
2023/04/27 09:59:20;;;;;;;3.33;1.58;;;;;;;16.52;43.03;100578.81;5072774;28;20052;-66
2023/04/27 10:01:52;;;;;;;2.28;1.45;;;;;;;16.55;43.07;100575.88;5072489;28;20055;-64
2023/04/27 10:04:52;;;;;;;3.60;1.70;;;;;;;16.57;43.21;100571.19;5072483;28;20529;-64
2023/04/27 10:07:21;;;;;;;2.05;1.38;;;;;;;16.60;43.13;100565.59;5072540;28;20052;-64
2023/04/27 10:09:51;;;;;;;2.42;1.40;;;;;;;16.62;43.03;100561.91;5072440;28;20051;-63
2023/04/27 10:12:21;;;;;;;2.33;1.40;;;;;;;16.64;43.05;100566.19;5071829;28;20048;-64
2023/04/27 10:14:54;;;;;;;3.90;1.80;;;;;;;16.68;42.98;100567.69;5072181;28;20060;-64
2023/04/27 10:17:30;;;;;;;2.85;1.50;;;;;;;16.70;43.12;100559.50;5071462;28;20058;-63
2023/04/27 10:20:00;;;;;;;3.25;1.67;;;;;;;16.73;43.19;100560.09;5072466;28;20048;-63
2023/04/27 10:22:39;;;;;;;3.45;1.63;;;;;;;16.77;43.32;100550.78;5072197;28;20135;-64
2023/04/27 10:25:20;;;;;;;3.05;1.60;;;;;;;16.80;43.26;100557.78;5072110;28;20481;-64
2023/04/27 10:27:51;;;;;;;2.47;1.50;;;;;;;16.82;43.47;100553.09;5071924;28;20052;-64
2023/04/27 10:30:24;;;;;;;2.13;1.20;;;;;;;16.86;43.44;100554.56;5072157;28;20049;-63
2023/04/27 10:32:55;;;;;;;2.63;1.50;;;;;;;16.88;43.48;100557.97;5072114;28;20067;-64
2023/04/27 10:35:33;;;;;;;3.13;1.50;;;;;;;16.91;43.56;100557.75;5071998;28;20113;-64
2023/04/27 10:38:09;;;;;;;2.95;1.45;;;;;;;16.93;43.42;100550.38;5071573;28;20044;-64
2023/04/27 10:40:38;;;;;;;2.33;1.42;;;;;;;16.95;43.47;100553.81;5071900;28;20114;-64
2023/04/27 10:43:11;;;;;;;2.22;1.30;;;;;;;16.97;43.46;100551.84;5072023;28;20049;-64
2023/04/27 10:45:40;;;;;;;2.92;1.30;;;;;;;17.02;43.37;100551.47;5071572;28;20052;-64
2023/04/27 10:48:09;;;;;;;3.65;1.50;;;;;;;17.06;43.47;100548.38;5071560;28;20052;-64
2023/04/27 10:50:37;;;;;;;2.90;1.40;;;;;;;17.09;43.62;100550.00;5071248;28;20486;-64
2023/04/27 10:53:07;;;;;;;4.68;1.70;;;;;;;17.13;43.64;100546.06;5071462;28;20045;-64
2023/04/27 10:55:36;;;;;;;2.63;1.50;;;;;;;17.16;43.78;100557.44;5071444;28;20060;-64
2023/04/27 10:58:05;;;;;;;3.53;1.52;;;;;;;17.22;43.94;100553.38;5071533;28;20475;-64
2023/04/27 11:00:36;;;;;;;2.08;1.13;;;;;;;17.25;43.83;100554.94;5071748;28;20131;-64
2023/04/27 11:03:15;;;;;;;2.47;1.50;;;;;;;17.31;44.03;100549.06;5071401;28;20044;-64
2023/04/27 11:05:44;;;;;;;2.20;1.50;;;;;;;17.34;43.99;100546.09;5071766;28;20117;-64
2023/04/27 11:08:14;;;;;;;2.95;1.35;;;;;;;17.37;44.15;100553.91;5071667;28;20430;-64
2023/04/27 11:10:45;;;;;;;2.45;1.55;;;;;;;17.41;44.18;100547.31;5071487;28;20144;-64
2023/04/27 11:13:16;;;;;;;2.70;1.50;;;;;;;17.46;44.34;100536.97;5071253;28;20048;-64
2023/04/27 11:15:49;;;;;;;2.28;1.30;;;;;;;17.52;44.22;100531.06;5071280;28;20098;-65
2023/04/27 11:18:19;;;;;;;2.25;1.38;;;;;;;17.56;44.03;100540.59;5071580;28;20053;-63
2023/04/27 11:20:49;;;;;;;2.80;1.35;;;;;;;17.62;44.07;100529.31;5071348;28;20498;-63
2023/04/27 11:23:25;;;;;;;3.00;1.55;;;;;;;17.68;44.11;100534.19;5071258;28;20417;-63
2023/04/27 11:25:54;;;;;;;3.58;1.80;;;;;;;17.73;43.95;100540.06;5071255;28;20060;-64
2023/04/27 11:28:24;;;;;;;2.28;1.42;;;;;;;17.79;44.20;100527.03;5071399;28;20572;-64
2023/04/27 11:30:59;;;;;;;2.65;1.30;;;;;;;17.84;44.01;100533.75;5075101;28;20512;-63
2023/04/27 11:33:28;;;;;;;2.03;1.25;;;;;;;17.89;44.15;100528.81;5075348;28;20102;-64
2023/04/27 11:35:57;;;;;;;1.85;1.20;;;;;;;17.95;43.79;100538.22;5075309;28;20078;-64